createdAt,value
2024-02-21T00:02:25.840Z,92966.44
2024-02-21T00:05:13.472Z,92964.88
2024-02-21T00:08:01.296Z,92956.56
2024-02-21T00:10:49.193Z,92955.81
2024-02-21T00:13:36.977Z,92949.84
2024-02-21T00:16:24.640Z,92954.16
2024-02-21T00:19:12.441Z,92960.16
2024-02-21T00:22:00.166Z,92949.13
2024-02-21T00:24:47.838Z,92943.41
2024-02-21T00:27:35.440Z,92940.16
2024-02-21T00:30:23.099Z,92940.00
2024-02-21T00:33:10.867Z,92930.47
2024-02-21T00:35:58.587Z,92923.88
2024-02-21T00:38:46.240Z,92924.78
2024-02-21T00:41:33.908Z,92929.56
2024-02-21T00:44:21.683Z,92933.88
2024-02-21T00:47:09.369Z,92928.34
2024-02-21T00:49:57.040Z,92925.72
2024-02-21T00:52:44.814Z,92923.59
2024-02-21T00:55:32.490Z,92914.06
2024-02-21T00:58:20.170Z,92916.06
2024-02-21T01:01:07.916Z,92918.03
2024-02-21T01:03:55.673Z,92920.94
2024-02-21T01:06:43.390Z,92913.69
2024-02-21T01:09:31.034Z,92906.16
2024-02-21T01:12:18.718Z,92896.47
2024-02-21T01:15:06.366Z,92885.69
2024-02-21T01:17:54.119Z,92896.34
2024-02-21T01:20:41.812Z,92884.38
2024-02-21T01:23:29.468Z,92879.00
2024-02-21T01:26:17.095Z,92879.31
2024-02-21T01:29:04.832Z,92879.88
2024-02-21T01:31:52.536Z,92875.03
2024-02-21T01:34:40.320Z,92862.19
2024-02-21T01:37:28.058Z,92863.13
2024-02-21T01:40:15.795Z,92863.91
2024-02-21T01:43:03.500Z,92864.34
2024-02-21T01:45:51.219Z,92858.97
2024-02-21T01:48:38.906Z,92857.97
2024-02-21T01:51:26.685Z,92848.88
2024-02-21T01:54:14.364Z,92843.75
2024-02-21T01:57:01.995Z,92836.00
2024-02-21T01:59:49.822Z,92836.78
2024-02-21T02:02:37.479Z,92829.44
2024-02-21T02:05:25.103Z,92825.28
2024-02-21T02:08:12.759Z,92824.59
2024-02-21T02:11:00.571Z,92827.31
2024-02-21T02:13:48.414Z,92826.88
2024-02-21T02:16:36.096Z,92818.44
2024-02-21T02:19:23.891Z,92809.91
2024-02-21T02:22:11.615Z,92800.56
2024-02-21T02:24:59.309Z,92796.91
2024-02-21T02:27:49.352Z,92793.75
2024-02-21T02:30:37.016Z,92793.53
2024-02-21T02:33:24.906Z,92796.00
2024-02-21T02:36:12.661Z,92794.66
2024-02-21T02:39:00.326Z,92794.59
2024-02-21T02:41:47.971Z,92803.81
2024-02-21T02:44:35.646Z,92796.91
2024-02-21T02:47:23.281Z,92777.63
2024-02-21T02:50:10.910Z,92770.06
2024-02-21T02:52:58.586Z,92764.81
2024-02-21T02:55:47.341Z,92764.91
2024-02-21T02:58:35.103Z,92765.38
2024-02-21T03:01:22.818Z,92771.19
2024-02-21T03:04:10.536Z,92757.13
2024-02-21T03:06:58.196Z,92742.00
2024-02-21T03:09:45.845Z,92739.72
2024-02-21T03:12:33.507Z,92734.78
2024-02-21T03:15:21.120Z,92739.19
2024-02-21T03:18:08.891Z,92740.13
2024-02-21T03:20:56.572Z,92742.16
2024-02-21T03:23:44.211Z,92729.44
2024-02-21T03:26:31.861Z,92724.34
2024-02-21T03:29:19.458Z,92721.34
2024-02-21T03:32:07.147Z,92710.72
2024-02-21T03:34:54.840Z,92703.88
2024-02-21T03:37:42.582Z,92700.41
2024-02-21T03:40:30.319Z,92697.03
2024-02-21T03:43:18.016Z,92699.44
2024-02-21T03:46:05.664Z,92685.13
2024-02-21T03:48:53.317Z,92686.06
2024-02-21T03:51:40.934Z,92683.28
2024-02-21T03:54:28.563Z,92696.31
2024-02-21T03:57:16.587Z,92690.16
2024-02-21T04:00:04.228Z,92699.84
2024-02-21T04:02:51.837Z,92699.34
2024-02-21T04:05:39.482Z,92696.56
2024-02-21T04:08:27.109Z,92693.75
2024-02-21T04:11:14.772Z,92697.97
2024-02-21T04:14:02.497Z,92706.72
2024-02-21T04:16:50.243Z,92708.00
2024-02-21T04:19:37.950Z,92697.63
2024-02-21T04:22:25.669Z,92690.66
2024-02-21T04:25:13.371Z,92690.06
2024-02-21T04:28:01.095Z,92695.47
2024-02-21T04:30:48.719Z,92697.09
2024-02-21T04:33:36.371Z,92698.00
2024-02-21T04:36:23.996Z,92690.03
2024-02-21T04:39:11.634Z,92670.91
2024-02-21T04:41:59.254Z,92659.84
2024-02-21T04:44:48.888Z,92657.16
2024-02-21T04:47:36.540Z,92649.53
2024-02-21T04:50:24.283Z,92648.25
2024-02-21T04:53:11.996Z,92637.06
2024-02-21T04:55:59.823Z,92626.34
2024-02-21T04:58:47.540Z,92630.94
2024-02-21T05:01:35.334Z,92633.31
2024-02-21T05:04:23.173Z,92629.25
2024-02-21T05:07:10.853Z,92635.28
2024-02-21T05:09:58.562Z,92632.56
2024-02-21T05:12:46.210Z,92622.25
2024-02-21T05:15:33.859Z,92630.28
2024-02-21T05:18:21.568Z,92615.47
2024-02-21T05:21:09.256Z,92610.25
2024-02-21T05:23:56.881Z,92617.06
2024-02-21T05:26:44.515Z,92616.72
2024-02-21T05:29:32.155Z,92611.56
2024-02-21T05:32:19.807Z,92614.53
2024-02-21T05:35:07.478Z,92616.66
2024-02-21T05:37:57.249Z,92622.31
2024-02-21T05:40:44.973Z,92611.81
2024-02-21T05:43:32.794Z,92613.69
2024-02-21T05:46:20.462Z,92615.78
2024-02-21T05:49:08.236Z,92623.06
2024-02-21T05:51:55.921Z,92615.94
2024-02-21T05:54:47.440Z,92614.03
2024-02-21T05:57:35.846Z,92612.91
2024-02-21T06:00:23.489Z,92611.53
2024-02-21T06:03:11.149Z,92614.50
2024-02-21T06:06:00.830Z,92617.72
2024-02-21T06:08:48.455Z,92622.13
2024-02-21T06:11:36.233Z,92623.56
2024-02-21T06:14:23.927Z,92619.59
2024-02-21T06:17:11.598Z,92612.88
2024-02-21T06:19:59.248Z,92616.28
2024-02-21T06:22:46.928Z,92622.06
2024-02-21T06:25:34.604Z,92618.19
2024-02-21T06:28:22.304Z,92622.38
2024-02-21T06:31:09.983Z,92620.38
2024-02-21T06:33:57.724Z,92623.88
2024-02-21T06:36:45.443Z,92632.56
2024-02-21T06:39:33.110Z,92631.47
2024-02-21T06:42:20.732Z,92625.44
2024-02-21T06:45:08.377Z,92641.28
2024-02-21T06:47:56.071Z,92643.34
2024-02-21T06:50:43.750Z,92635.03
2024-02-21T06:53:31.410Z,92644.94
2024-02-21T06:56:19.034Z,92652.50
2024-02-21T06:59:06.703Z,92643.38
2024-02-21T07:01:54.425Z,92647.94
2024-02-21T07:04:42.275Z,92654.13
2024-02-21T07:07:30.225Z,92645.88
2024-02-21T07:10:17.988Z,92643.03
2024-02-21T07:13:05.646Z,92639.91
2024-02-21T07:15:53.296Z,92634.44
2024-02-21T07:18:40.951Z,92635.28
2024-02-21T07:21:28.698Z,92640.75
2024-02-21T07:24:16.418Z,92640.75
2024-02-21T07:27:04.057Z,92637.66
2024-02-21T07:29:51.704Z,92636.78
2024-02-21T07:32:39.384Z,92632.00
2024-02-21T07:35:27.086Z,92633.06
2024-02-21T07:38:14.831Z,92636.94
2024-02-21T07:41:00.867Z,92630.88
2024-02-21T07:43:46.892Z,92632.56
2024-02-21T07:46:34.589Z,92640.47
2024-02-21T07:49:22.421Z,92639.56
2024-02-21T07:52:12.096Z,92630.44
2024-02-21T07:54:59.753Z,92636.34
2024-02-21T07:57:47.388Z,92626.47
2024-02-21T08:00:37.090Z,92626.72
2024-02-21T08:03:24.845Z,92629.44
2024-02-21T08:06:12.649Z,92630.25
2024-02-21T08:09:00.346Z,92625.13
2024-02-21T08:11:48.027Z,92614.66
2024-02-21T08:14:35.689Z,92612.13
2024-02-21T08:17:23.335Z,92613.19
2024-02-21T08:20:10.982Z,92616.03
2024-02-21T08:22:58.670Z,92602.00
2024-02-21T08:25:46.374Z,92600.69
2024-02-21T08:28:34.030Z,92601.44
2024-02-21T08:31:21.796Z,92595.97
2024-02-21T08:34:09.496Z,92591.59
2024-02-21T08:36:57.138Z,92592.16
2024-02-21T08:39:44.789Z,92593.59
2024-02-21T08:42:34.732Z,92601.00
2024-02-21T08:45:22.624Z,92596.94
2024-02-21T08:48:10.369Z,92599.84
2024-02-21T08:50:58.193Z,92598.91
2024-02-21T08:53:45.919Z,92588.06
2024-02-21T08:56:33.567Z,92595.06
2024-02-21T08:59:21.246Z,92588.19
2024-02-21T09:02:08.932Z,92594.56
2024-02-21T09:04:56.814Z,92598.56
2024-02-21T09:07:44.584Z,92599.50
2024-02-21T09:10:32.280Z,92589.81
2024-02-21T09:13:19.998Z,92583.06
2024-02-21T09:16:09.683Z,92580.31
2024-02-21T09:18:59.166Z,92590.69
2024-02-21T09:21:46.873Z,92595.13
2024-02-21T09:24:34.495Z,92598.19
2024-02-21T09:27:22.183Z,92595.78
2024-02-21T09:30:10.003Z,92599.81
2024-02-21T09:32:57.870Z,92593.66
2024-02-21T09:35:45.602Z,92603.53
2024-02-21T09:38:33.319Z,92603.97
2024-02-21T09:41:24.437Z,92601.31
2024-02-21T09:44:13.952Z,92595.19
2024-02-21T09:47:01.621Z,92589.72
2024-02-21T09:49:49.481Z,92588.75
2024-02-21T09:52:37.168Z,92594.25
2024-02-21T09:55:24.846Z,92593.56
2024-02-21T09:58:12.578Z,92573.97
2024-02-21T10:01:04.504Z,92562.34
2024-02-21T10:03:55.571Z,92555.13
2024-02-21T10:06:44.323Z,92558.66
2024-02-21T10:09:32.160Z,92552.72
2024-02-21T10:12:19.838Z,92557.31
2024-02-21T10:15:07.472Z,92553.91
2024-02-21T10:17:55.169Z,92562.72
2024-02-21T10:20:42.882Z,92573.22
2024-02-21T10:23:32.547Z,92558.06
2024-02-21T10:26:19.040Z,92564.47
2024-02-21T10:29:05.351Z,92559.75
2024-02-21T10:31:55.142Z,92553.53
2024-02-21T10:34:43.178Z,92565.72
2024-02-21T10:37:31.242Z,92548.09
2024-02-21T10:40:20.894Z,92551.69
2024-02-21T10:43:08.571Z,92546.56
2024-02-21T10:45:56.217Z,92537.03
2024-02-21T10:48:44.003Z,92533.63
2024-02-21T10:51:31.753Z,92521.69
2024-02-21T10:54:19.422Z,92517.56
2024-02-21T10:57:07.048Z,92509.94
2024-02-21T10:59:54.800Z,92508.97
2024-02-21T11:02:42.608Z,92500.97
2024-02-21T11:05:30.400Z,92510.59
2024-02-21T11:08:18.082Z,92503.72
2024-02-21T11:11:05.925Z,92493.00
2024-02-21T11:13:53.682Z,92489.09
2024-02-21T11:16:41.445Z,92486.22
2024-02-21T11:19:29.364Z,92482.66
2024-02-21T11:22:17.136Z,92480.19
2024-02-21T11:25:04.752Z,92472.59
2024-02-21T11:27:52.385Z,92470.94
2024-02-21T11:30:40.013Z,92460.88
2024-02-21T11:33:27.715Z,92459.16
2024-02-21T11:36:15.386Z,92449.03
2024-02-21T11:39:03.041Z,92446.22
2024-02-21T11:41:50.663Z,92444.66
2024-02-21T11:44:38.398Z,92436.16
2024-02-21T11:47:28.066Z,92431.22
2024-02-21T11:50:17.755Z,92425.34
2024-02-21T11:53:07.208Z,92419.34
2024-02-21T11:55:55.204Z,92414.25
2024-02-21T11:58:43.030Z,92414.56
2024-02-21T12:01:30.771Z,92415.41
2024-02-21T12:04:18.554Z,92395.06
2024-02-21T12:07:06.296Z,92404.03
2024-02-21T12:09:53.934Z,92392.28
2024-02-21T12:12:41.569Z,92380.06
2024-02-21T12:15:29.198Z,92381.84
2024-02-21T12:18:16.954Z,92383.28
2024-02-21T12:21:04.676Z,92376.44
2024-02-21T12:23:52.312Z,92366.88
2024-02-21T12:26:39.965Z,92357.97
2024-02-21T12:29:27.640Z,92348.78
2024-02-21T12:32:15.390Z,92351.63
2024-02-21T12:35:03.260Z,92340.59
2024-02-21T12:37:50.992Z,92338.97
2024-02-21T12:40:38.705Z,92333.47
2024-02-21T12:43:26.432Z,92322.34
2024-02-21T12:46:14.074Z,92321.47
2024-02-21T12:49:01.744Z,92311.75
2024-02-21T12:51:49.600Z,92305.44
2024-02-21T12:54:37.286Z,92292.31
2024-02-21T12:57:27.551Z,92295.03
2024-02-21T13:00:15.865Z,92273.53
2024-02-21T13:03:03.538Z,92282.16
2024-02-21T13:05:51.226Z,92279.81
2024-02-21T13:08:38.890Z,92268.81
2024-02-21T13:11:26.624Z,92270.03
2024-02-21T13:14:14.463Z,92255.69
2024-02-21T13:17:02.191Z,92244.03
2024-02-21T13:19:50.065Z,92229.28
2024-02-21T13:22:37.875Z,92226.19
2024-02-21T13:25:25.597Z,92221.34
2024-02-21T13:28:13.245Z,92213.75
2024-02-21T13:31:00.864Z,92207.31
2024-02-21T13:33:48.575Z,92194.88
2024-02-21T13:36:36.328Z,92182.03
2024-02-21T13:39:24.051Z,92186.94
2024-02-21T13:42:11.704Z,92184.69
2024-02-21T13:44:59.378Z,92178.25
2024-02-21T13:47:47.052Z,92168.03
2024-02-21T13:50:36.711Z,92163.84
2024-02-21T13:53:24.350Z,92162.69
2024-02-21T13:56:12.008Z,92148.75
2024-02-21T13:58:59.758Z,92143.47
2024-02-21T14:01:47.570Z,92141.94
2024-02-21T14:04:35.352Z,92140.81
2024-02-21T14:07:23.063Z,92134.38
2024-02-21T14:10:10.895Z,92125.34
2024-02-21T14:12:58.705Z,92132.50
2024-02-21T14:15:46.352Z,92125.34
2024-02-21T14:18:34.189Z,92115.13
2024-02-21T14:21:21.918Z,92118.16
2024-02-21T14:24:09.547Z,92101.84
2024-02-21T14:26:57.213Z,92113.63
2024-02-21T14:29:44.880Z,92106.78
2024-02-21T14:32:32.693Z,92115.50
2024-02-21T14:35:20.475Z,92110.53
2024-02-21T14:38:08.604Z,92109.44
2024-02-21T14:40:56.395Z,92118.09
2024-02-21T14:43:44.379Z,92121.25
2024-02-21T14:46:34.360Z,92116.72
2024-02-21T14:49:22.307Z,92121.13
2024-02-21T14:52:10.070Z,92107.75
2024-02-21T14:54:57.759Z,92110.09
2024-02-21T14:57:45.388Z,92089.22
2024-02-21T15:00:33.475Z,92084.91
2024-02-21T15:03:21.228Z,92074.53
2024-02-21T15:06:09.011Z,92078.38
2024-02-21T15:08:56.682Z,92076.56
2024-02-21T15:11:46.366Z,92067.06
2024-02-21T15:14:34.071Z,92066.31
2024-02-21T15:17:21.790Z,92058.81
2024-02-21T15:20:09.490Z,92062.25
2024-02-21T15:22:57.223Z,92071.69
2024-02-21T15:25:45.046Z,92071.69
2024-02-21T15:28:32.843Z,92069.75
2024-02-21T15:31:20.591Z,92070.16
2024-02-21T15:34:08.292Z,92074.31
2024-02-21T15:36:56.252Z,92070.88
2024-02-21T15:39:43.916Z,92069.75
2024-02-21T15:42:31.652Z,92058.06
2024-02-21T15:45:19.286Z,92045.59
2024-02-21T15:48:06.971Z,92043.72
2024-02-21T15:50:54.651Z,92024.84
2024-02-21T15:53:42.318Z,92036.16
2024-02-21T15:56:29.987Z,92035.75
2024-02-21T15:59:17.713Z,92039.16
2024-02-21T16:02:05.406Z,92041.44
2024-02-21T16:04:53.294Z,92039.53
2024-02-21T16:07:41.203Z,92047.09
2024-02-21T16:10:28.961Z,92036.50
2024-02-21T16:13:16.624Z,92042.19
2024-02-21T16:16:04.373Z,92046.00
2024-02-21T16:18:52.016Z,92043.72
2024-02-21T16:21:39.689Z,92040.69
2024-02-21T16:24:27.355Z,92042.19
2024-02-21T16:27:17.025Z,92038.06
2024-02-21T16:30:07.020Z,92034.66
2024-02-21T16:32:56.251Z,92027.09
2024-02-21T16:35:44.066Z,92022.53
2024-02-21T16:38:31.804Z,92024.09
2024-02-21T16:41:21.506Z,92025.22
2024-02-21T16:44:09.237Z,92018.78
2024-02-21T16:46:56.922Z,92015.41
2024-02-21T16:49:44.658Z,92015.75
2024-02-21T16:52:32.610Z,92010.47
2024-02-21T16:55:20.341Z,92008.56
2024-02-21T16:58:08.000Z,91997.25
2024-02-21T17:00:57.751Z,91994.97
2024-02-21T17:03:45.584Z,91981.75
2024-02-21T17:06:33.444Z,91984.00
2024-02-21T17:09:21.119Z,91973.03
2024-02-21T17:12:08.887Z,91970.44
2024-02-21T17:14:56.543Z,91966.63
2024-02-21T17:17:44.280Z,91960.16
2024-02-21T17:20:31.930Z,91951.81
2024-02-21T17:23:19.669Z,91969.53
2024-02-21T17:26:07.554Z,91968.75
2024-02-21T17:28:55.403Z,91965.72
2024-02-21T17:31:43.086Z,91949.09
2024-02-21T17:34:32.809Z,91960.03
2024-02-21T17:37:20.519Z,91965.66
2024-02-21T17:40:10.145Z,91979.41
2024-02-21T17:42:57.809Z,91962.00
2024-02-21T17:45:45.428Z,91965.44
2024-02-21T17:48:33.134Z,91967.72
2024-02-21T17:51:20.964Z,91959.81
2024-02-21T17:54:08.627Z,91956.78
2024-02-21T17:56:56.346Z,91960.97
2024-02-21T17:59:44.165Z,91959.44
2024-02-21T18:02:31.936Z,91953.34
2024-02-21T18:05:19.640Z,91958.28
2024-02-21T18:08:07.404Z,91951.03
2024-02-21T18:10:55.283Z,91938.94
2024-02-21T18:13:43.051Z,91950.13
2024-02-21T18:16:30.734Z,91948.00
2024-02-21T18:19:18.459Z,91947.69
2024-02-21T18:22:06.164Z,91943.88
2024-02-21T18:24:53.791Z,91950.38
2024-02-21T18:27:41.422Z,91953.03
2024-02-21T18:30:29.040Z,91943.19
2024-02-21T18:33:16.784Z,91923.59
2024-02-21T18:36:04.474Z,91932.63
2024-02-21T18:38:52.129Z,91936.41
2024-02-21T18:41:39.800Z,91945.09
2024-02-21T18:44:27.441Z,91937.91
2024-02-21T18:47:15.181Z,91941.34
2024-02-21T18:50:03.046Z,91936.44
2024-02-21T18:52:50.808Z,91936.84
2024-02-21T18:55:38.538Z,91936.84
2024-02-21T18:58:26.243Z,91937.59
2024-02-21T19:01:14.022Z,91935.75
2024-02-21T19:04:01.788Z,91928.94
2024-02-21T19:06:49.452Z,91929.31
2024-02-21T19:09:37.103Z,91921.75
2024-02-21T19:12:24.732Z,91908.16
2024-02-21T19:15:12.390Z,91905.13
2024-02-21T19:18:00.087Z,91907.38
2024-02-21T19:20:47.816Z,91901.69
2024-02-21T19:23:35.453Z,91906.25
2024-02-21T19:26:23.115Z,91894.09
2024-02-21T19:29:10.959Z,91888.72
2024-02-21T19:31:58.765Z,91904.72
2024-02-21T19:34:46.634Z,91893.81
2024-02-21T19:37:34.488Z,91893.06
2024-02-21T19:40:22.153Z,91889.66
2024-02-21T19:43:09.790Z,91874.94
2024-02-21T19:45:57.525Z,91883.25
2024-02-21T19:48:45.339Z,91868.91
2024-02-21T19:51:33.037Z,91872.31
2024-02-21T19:54:24.965Z,91876.81
2024-02-21T19:57:13.227Z,91857.59
2024-02-21T20:00:00.953Z,91862.88
2024-02-21T20:02:48.587Z,91859.13
2024-02-21T20:05:36.332Z,91856.06
2024-02-21T20:08:24.167Z,91854.16
2024-02-21T20:11:12.184Z,91839.84
2024-02-21T20:13:59.955Z,91848.94
2024-02-21T20:16:47.635Z,91848.94
2024-02-21T20:19:35.327Z,91845.53
2024-02-21T20:22:23.069Z,91836.88
2024-02-21T20:25:10.713Z,91830.44
2024-02-21T20:27:58.389Z,91839.50
2024-02-21T20:30:46.051Z,91826.31
2024-02-21T20:33:33.786Z,91833.47
2024-02-21T20:36:21.440Z,91819.88
2024-02-21T20:39:09.098Z,91825.91
2024-02-21T20:41:56.714Z,91822.53
2024-02-21T20:44:44.360Z,91830.44
2024-02-21T20:47:31.996Z,91830.81
2024-02-21T20:50:19.726Z,91818.03
2024-02-21T20:53:07.480Z,91810.84
2024-02-21T20:55:55.252Z,91821.00
2024-02-21T20:58:42.921Z,91810.06
2024-02-21T21:01:30.676Z,91811.22
2024-02-21T21:04:20.387Z,91810.44
2024-02-21T21:07:08.088Z,91808.16
2024-02-21T21:09:55.742Z,91808.16
2024-02-21T21:12:43.440Z,91805.19
2024-02-21T21:15:31.103Z,91804.06
2024-02-21T21:18:18.813Z,91792.72
2024-02-21T21:21:06.621Z,91783.69
2024-02-21T21:23:54.289Z,91791.63
2024-02-21T21:26:41.944Z,91785.97
2024-02-21T21:29:29.584Z,91780.25
2024-02-21T21:32:17.257Z,91782.56
2024-02-21T21:35:04.973Z,91779.16
2024-02-21T21:37:52.704Z,91762.56
2024-02-21T21:40:40.391Z,91763.69
2024-02-21T21:43:28.049Z,91774.66
2024-02-21T21:46:15.697Z,91781.06
2024-02-21T21:49:03.414Z,91755.78
2024-02-21T21:51:51.073Z,91760.31
2024-02-21T21:54:38.708Z,91762.19
2024-02-21T21:57:26.335Z,91765.22
2024-02-21T22:00:13.989Z,91757.31
2024-02-21T22:03:01.685Z,91761.09
2024-02-21T22:05:49.334Z,91761.81
2024-02-21T22:08:36.960Z,91757.69
2024-02-21T22:11:24.602Z,91753.16
2024-02-21T22:14:12.488Z,91763.69
2024-02-21T22:17:00.222Z,91752.00
2024-02-21T22:19:47.961Z,91757.69
2024-02-21T22:22:35.782Z,91755.44
2024-02-21T22:25:23.578Z,91759.56
2024-02-21T22:28:11.245Z,91754.66
2024-02-21T22:30:58.934Z,91746.34
2024-02-21T22:33:46.631Z,91744.81
2024-02-21T22:36:34.308Z,91739.16
2024-02-21T22:39:21.901Z,91746.75
2024-02-21T22:42:11.564Z,91741.09
2024-02-21T22:44:59.181Z,91730.50
2024-02-21T22:47:46.859Z,91725.25
2024-02-21T22:50:34.497Z,91733.56
2024-02-21T22:53:24.165Z,91730.94
2024-02-21T22:56:11.834Z,91725.25
2024-02-21T22:58:59.632Z,91727.91
2024-02-21T23:01:47.299Z,91725.25
2024-02-21T23:04:35.080Z,91728.69
2024-02-21T23:07:22.836Z,91721.88
2024-02-21T23:10:10.482Z,91728.66
2024-02-21T23:12:58.125Z,91714.34
2024-02-21T23:15:46.864Z,91712.06
2024-02-21T23:18:35.429Z,91707.19
2024-02-21T23:21:23.096Z,91709.06
2024-02-21T23:24:10.758Z,91701.91
2024-02-21T23:26:58.408Z,91691.34
2024-02-21T23:29:46.070Z,91684.94
2024-02-21T23:32:33.751Z,91686.09
2024-02-21T23:35:21.420Z,91692.84
2024-02-21T23:38:09.180Z,91677.81
2024-02-21T23:40:56.897Z,91684.97
2024-02-21T23:43:44.603Z,91690.22
2024-02-21T23:46:32.294Z,91694.38
2024-02-21T23:49:20.030Z,91693.22
2024-02-21T23:52:07.728Z,91667.56
2024-02-21T23:54:55.407Z,91671.72
2024-02-21T23:57:43.043Z,91672.81
